sensor_id;sensor_type;location;lat;lon;timestamp;pressure;altitude;pressure_sealevel;temperature;humidity
18985;BME280;9626;52.552;13.436;2023-05-01T00:00:55;101532.50;;;7.83;89.74
18985;BME280;9626;52.552;13.436;2023-05-01T00:03:21;101523.78;;;8.05;87.72
18985;BME280;9626;52.552;13.436;2023-05-01T00:05:47;101523.69;;;7.79;88.89
18985;BME280;9626;52.552;13.436;2023-05-01T00:08:14;101530.69;;;7.75;90.04
18985;BME280;9626;52.552;13.436;2023-05-01T00:10:40;101523.78;;;8.02;87.61
18985;BME280;9626;52.552;13.436;2023-05-01T00:13:06;101525.56;;;8.06;86.30
18985;BME280;9626;52.552;13.436;2023-05-01T00:15:34;101529.09;;;8.16;85.83
18985;BME280;9626;52.552;13.436;2023-05-01T00:18:01;101529.97;;;8.10;85.95
18985;BME280;9626;52.552;13.436;2023-05-01T00:20:28;101526.44;;;8.02;87.10
18985;BME280;9626;52.552;13.436;2023-05-01T00:22:54;101522.00;;;8.00;87.89
18985;BME280;9626;52.552;13.436;2023-05-01T00:25:20;101520.25;;;8.00;87.23
18985;BME280;9626;52.552;13.436;2023-05-01T00:27:46;101515.00;;;8.12;86.70
18985;BME280;9626;52.552;13.436;2023-05-01T00:30:13;101519.41;;;8.09;86.25
18985;BME280;9626;52.552;13.436;2023-05-01T00:32:39;101511.53;;;8.23;85.61
18985;BME280;9626;52.552;13.436;2023-05-01T00:35:05;101511.50;;;8.12;84.72
18985;BME280;9626;52.552;13.436;2023-05-01T00:37:31;101515.06;;;8.22;84.60
18985;BME280;9626;52.552;13.436;2023-05-01T00:39:58;101513.31;;;8.32;83.03
18985;BME280;9626;52.552;13.436;2023-05-01T00:42:24;101501.84;;;8.16;83.60
18985;BME280;9626;52.552;13.436;2023-05-01T00:44:50;101504.47;;;8.12;83.97
18985;BME280;9626;52.552;13.436;2023-05-01T00:47:16;101511.53;;;8.17;83.09
18985;BME280;9626;52.552;13.436;2023-05-01T00:49:43;101503.59;;;8.07;83.84
18985;BME280;9626;52.552;13.436;2023-05-01T00:52:10;101495.63;;;7.98;84.86
18985;BME280;9626;52.552;13.436;2023-05-01T00:54:36;101502.66;;;7.96;85.22
18985;BME280;9626;52.552;13.436;2023-05-01T00:57:02;101499.09;;;7.82;86.55
18985;BME280;9626;52.552;13.436;2023-05-01T00:59:28;101500.81;;;7.81;86.47
18985;BME280;9626;52.552;13.436;2023-05-01T01:01:55;101497.31;;;7.81;86.70
18985;BME280;9626;52.552;13.436;2023-05-01T01:04:21;101493.75;;;7.72;87.52
18985;BME280;9626;52.552;13.436;2023-05-01T01:07:10;101487.59;;;7.69;87.40
18985;BME280;9626;52.552;13.436;2023-05-01T01:14:51;101488.50;;;7.71;87.76
18985;BME280;9626;52.552;13.436;2023-05-01T01:17:26;101486.66;;;7.59;88.78
18985;BME280;9626;52.552;13.436;2023-05-01T01:20:20;101486.56;;;7.42;90.84
18985;BME280;9626;52.552;13.436;2023-05-01T01:34:03;101476.78;;;7.24;93.04
18985;BME280;9626;52.552;13.436;2023-05-01T01:36:39;101475.03;;;7.24;93.23
18985;BME280;9626;52.552;13.436;2023-05-01T01:39:10;101471.50;;;7.22;93.70
18985;BME280;9626;52.552;13.436;2023-05-01T01:41:39;101474.22;;;7.33;92.55
18985;BME280;9626;52.552;13.436;2023-05-01T01:44:18;101464.59;;;7.40;92.30
18985;BME280;9626;52.552;13.436;2023-05-01T01:46:48;101469.00;;;7.42;91.51
18985;BME280;9626;52.552;13.436;2023-05-01T01:49:19;101465.50;;;7.40;91.07
18985;BME280;9626;52.552;13.436;2023-05-01T01:51:47;101471.63;;;7.36;91.79
18985;BME280;9626;52.552;13.436;2023-05-01T01:54:18;101465.38;;;7.22;93.41
18985;BME280;9626;52.552;13.436;2023-05-01T01:56:47;101461.75;;;7.07;94.79
18985;BME280;9626;52.552;13.436;2023-05-01T01:59:15;101459.19;;;7.20;94.70
18985;BME280;9626;52.552;13.436;2023-05-01T02:01:42;101454.75;;;7.13;94.68
18985;BME280;9626;52.552;13.436;2023-05-01T02:04:10;101455.69;;;7.16;93.99
18985;BME280;9626;52.552;13.436;2023-05-01T02:06:37;101451.16;;;6.98;95.71
18985;BME280;9626;52.552;13.436;2023-05-01T02:09:05;101454.59;;;6.88;96.57
18985;BME280;9626;52.552;13.436;2023-05-01T02:11:34;101449.31;;;6.85;97.44
18985;BME280;9626;52.552;13.436;2023-05-01T02:14:01;101447.53;;;6.85;98.66
18985;BME280;9626;52.552;13.436;2023-05-01T02:16:30;101450.09;;;6.76;98.74
18985;BME280;9626;52.552;13.436;2023-05-01T02:18:59;101445.84;;;6.90;98.35
18985;BME280;9626;52.552;13.436;2023-05-01T02:21:26;101444.91;;;6.87;97.46
18985;BME280;9626;52.552;13.436;2023-05-01T02:23:53;101448.38;;;6.76;98.66
18985;BME280;9626;52.552;13.436;2023-05-01T02:26:21;101443.94;;;6.72;99.82
18985;BME280;9626;52.552;13.436;2023-05-01T02:28:50;101443.03;;;6.69;100.00
18985;BME280;9626;52.552;13.436;2023-05-01T02:31:16;101447.34;;;6.62;100.00
18985;BME280;9626;52.552;13.436;2023-05-01T02:33:42;101441.16;;;6.58;100.00
18985;BME280;9626;52.552;13.436;2023-05-01T02:36:08;101435.09;;;6.64;100.00
18985;BME280;9626;52.552;13.436;2023-05-01T02:38:34;101435.13;;;6.69;100.00
18985;BME280;9626;52.552;13.436;2023-05-01T02:41:01;101431.53;;;6.59;100.00
18985;BME280;9626;52.552;13.436;2023-05-01T02:43:31;101426.28;;;6.59;100.00
18985;BME280;9626;52.552;13.436;2023-05-01T02:45:58;101426.31;;;6.65;99.78
18985;BME280;9626;52.552;13.436;2023-05-01T02:48:27;101420.16;;;6.60;99.78
18985;BME280;9626;52.552;13.436;2023-05-01T02:50:55;101422.75;;;6.57;99.63
18985;BME280;9626;52.552;13.436;2023-05-01T02:53:22;101417.47;;;6.54;98.79
18985;BME280;9626;52.552;13.436;2023-05-01T02:55:49;101412.94;;;6.40;99.12
18985;BME280;9626;52.552;13.436;2023-05-01T02:58:19;101405.03;;;6.37;100.00
18985;BME280;9626;52.552;13.436;2023-05-01T03:00:47;101408.50;;;6.33;100.00
18985;BME280;9626;52.552;13.436;2023-05-01T03:03:14;101410.38;;;6.43;100.00
18985;BME280;9626;52.552;13.436;2023-05-01T03:05:41;101403.47;;;6.61;98.58
18985;BME280;9626;52.552;13.436;2023-05-01T03:08:07;101399.03;;;6.51;98.08
18985;BME280;9626;52.552;13.436;2023-05-01T03:10:33;101393.88;;;6.69;96.74
18985;BME280;9626;52.552;13.436;2023-05-01T03:12:59;101385.13;;;6.66;94.97
18985;BME280;9626;52.552;13.436;2023-05-01T03:15:25;101379.84;;;6.66;96.24
18985;BME280;9626;52.552;13.436;2023-05-01T03:17:51;101384.22;;;6.65;95.20
18985;BME280;9626;52.552;13.436;2023-05-01T03:20:18;101378.97;;;6.67;94.54
18985;BME280;9626;52.552;13.436;2023-05-01T03:22:44;101378.09;;;6.66;93.90
18985;BME280;9626;52.552;13.436;2023-05-01T03:25:10;101382.41;;;6.58;95.11
18985;BME280;9626;52.552;13.436;2023-05-01T03:27:36;101375.31;;;6.48;96.05
18985;BME280;9626;52.552;13.436;2023-05-01T03:30:03;101372.72;;;6.49;95.49
18985;BME280;9626;52.552;13.436;2023-05-01T03:32:29;101375.25;;;6.38;95.35
18985;BME280;9626;52.552;13.436;2023-05-01T03:34:55;101375.34;;;6.54;95.36
18985;BME280;9626;52.552;13.436;2023-05-01T03:37:21;101371.88;;;6.56;94.87
18985;BME280;9626;52.552;13.436;2023-05-01T03:39:47;101370.19;;;6.66;93.12
18985;BME280;9626;52.552;13.436;2023-05-01T03:42:13;101373.72;;;6.67;92.02
18985;BME280;9626;52.552;13.436;2023-05-01T03:44:39;101372.88;;;6.71;91.96
18985;BME280;9626;52.552;13.436;2023-05-01T03:47:05;101365.81;;;6.67;92.19
18985;BME280;9626;52.552;13.436;2023-05-01T03:49:31;101363.13;;;6.62;92.49
18985;BME280;9626;52.552;13.436;2023-05-01T03:51:57;101366.59;;;6.53;92.89
18985;BME280;9626;52.552;13.436;2023-05-01T03:54:23;101369.25;;;6.55;93.86
18985;BME280;9626;52.552;13.436;2023-05-01T03:56:50;101372.72;;;6.55;94.20
18985;BME280;9626;52.552;13.436;2023-05-01T03:59:16;101372.81;;;6.62;92.83
18985;BME280;9626;52.552;13.436;2023-05-01T04:01:42;101363.03;;;6.48;94.00
18985;BME280;9626;52.552;13.436;2023-05-01T04:04:09;101371.78;;;6.47;93.08
18985;BME280;9626;52.552;13.436;2023-05-01T04:06:35;101369.13;;;6.39;93.43
18985;BME280;9626;52.552;13.436;2023-05-01T04:09:04;101362.13;;;6.46;93.41
18985;BME280;9626;52.552;13.436;2023-05-01T04:11:30;101362.09;;;6.37;93.09
18985;BME280;9626;52.552;13.436;2023-05-01T04:13:56;101362.03;;;6.34;94.20
18985;BME280;9626;52.552;13.436;2023-05-01T04:16:22;101361.16;;;6.33;93.43
18985;BME280;9626;52.552;13.436;2023-05-01T04:18:48;101361.16;;;6.35;94.71
18985;BME280;9626;52.552;13.436;2023-05-01T04:21:14;101362.94;;;6.37;94.26
18985;BME280;9626;52.552;13.436;2023-05-01T04:23:42;101362.13;;;6.43;93.25
18985;BME280;9626;52.552;13.436;2023-05-01T04:26:08;101360.41;;;6.48;91.94
18985;BME280;9626;52.552;13.436;2023-05-01T04:28:34;101368.19;;;6.34;93.66
18985;BME280;9626;52.552;13.436;2023-05-01T04:31:00;101358.53;;;6.35;93.87
18985;BME280;9626;52.552;13.436;2023-05-01T04:33:26;101358.50;;;6.30;93.91
18985;BME280;9626;52.552;13.436;2023-05-01T04:35:53;101361.16;;;6.30;94.38
18985;BME280;9626;52.552;13.436;2023-05-01T04:38:19;101363.78;;;6.32;93.96
18985;BME280;9626;52.552;13.436;2023-05-01T04:40:45;101355.91;;;6.36;94.71
18985;BME280;9626;52.552;13.436;2023-05-01T04:43:11;101348.03;;;6.36;92.39
18985;BME280;9626;52.552;13.436;2023-05-01T04:45:38;101356.88;;;6.45;91.28
18985;BME280;9626;52.552;13.436;2023-05-01T04:48:04;101355.91;;;6.36;90.81
18985;BME280;9626;52.552;13.436;2023-05-01T04:50:30;101350.72;;;6.42;90.46
18985;BME280;9626;52.552;13.436;2023-05-01T04:52:56;101349.88;;;6.48;88.57
18985;BME280;9626;52.552;13.436;2023-05-01T04:55:22;101346.38;;;6.48;89.61
18985;BME280;9626;52.552;13.436;2023-05-01T04:57:48;101341.22;;;6.60;88.68
18985;BME280;9626;52.552;13.436;2023-05-01T05:00:14;101343.88;;;6.66;87.08
18985;BME280;9626;52.552;13.436;2023-05-01T05:02:41;101340.44;;;6.76;84.91
18985;BME280;9626;52.552;13.436;2023-05-01T05:05:07;101342.16;;;6.74;85.84
18985;BME280;9626;52.552;13.436;2023-05-01T05:07:33;101340.47;;;6.80;85.15
18985;BME280;9626;52.552;13.436;2023-05-01T05:09:59;101344.00;;;6.82;84.63
18985;BME280;9626;52.552;13.436;2023-05-01T05:12:25;101337.81;;;6.78;83.33
18985;BME280;9626;52.552;13.436;2023-05-01T05:14:51;101336.97;;;6.81;83.30
18985;BME280;9626;52.552;13.436;2023-05-01T05:17:18;101336.06;;;6.77;81.35
18985;BME280;9626;52.552;13.436;2023-05-01T05:19:44;101330.78;;;6.80;82.24
18985;BME280;9626;52.552;13.436;2023-05-01T05:22:10;101329.94;;;6.83;80.60
18985;BME280;9626;52.552;13.436;2023-05-01T05:24:37;101329.09;;;6.88;80.81
18985;BME280;9626;52.552;13.436;2023-05-01T05:27:03;101329.13;;;6.94;80.91
18985;BME280;9626;52.552;13.436;2023-05-01T05:29:30;101324.78;;;7.01;78.64
18985;BME280;9626;52.552;13.436;2023-05-01T05:31:57;101326.56;;;7.05;77.67
18985;BME280;9626;52.552;13.436;2023-05-01T05:34:24;101324.84;;;7.10;77.20
18985;BME280;9626;52.552;13.436;2023-05-01T05:36:50;101310.75;;;7.10;76.41
18985;BME280;9626;52.552;13.436;2023-05-01T05:39:16;101320.44;;;7.13;76.14
18985;BME280;9626;52.552;13.436;2023-05-01T05:41:42;101304.69;;;7.17;75.90
18985;BME280;9626;52.552;13.436;2023-05-01T05:44:08;101309.09;;;7.26;75.23
18985;BME280;9626;52.552;13.436;2023-05-01T05:46:34;101311.75;;;7.34;74.42
18985;BME280;9626;52.552;13.436;2023-05-01T05:49:00;101306.50;;;7.43;73.67
18985;BME280;9626;52.552;13.436;2023-05-01T05:51:26;101305.66;;;7.55;72.13
18985;BME280;9626;52.552;13.436;2023-05-01T05:53:52;101307.41;;;7.47;71.15
18985;BME280;9626;52.552;13.436;2023-05-01T05:56:19;101303.94;;;7.60;71.88
18985;BME280;9626;52.552;13.436;2023-05-01T05:58:45;101304.78;;;7.59;68.79
18985;BME280;9626;52.552;13.436;2023-05-01T06:01:11;101300.44;;;7.72;69.90
18985;BME280;9626;52.552;13.436;2023-05-01T06:03:37;101309.22;;;7.72;68.81
18985;BME280;9626;52.552;13.436;2023-05-01T06:06:03;101296.94;;;7.74;68.67
18985;BME280;9626;52.552;13.436;2023-05-01T06:08:29;101300.47;;;7.89;67.90
18985;BME280;9626;52.552;13.436;2023-05-01T06:10:55;101301.34;;;8.00;67.25
18985;BME280;9626;52.552;13.436;2023-05-01T06:13:21;101300.47;;;8.09;66.57
18985;BME280;9626;52.552;13.436;2023-05-01T06:15:47;101293.44;;;8.09;65.95
18985;BME280;9626;52.552;13.436;2023-05-01T06:18:13;101305.75;;;8.23;66.10
18985;BME280;9626;52.552;13.436;2023-05-01T06:20:39;101306.63;;;8.33;65.86
18985;BME280;9626;52.552;13.436;2023-05-01T06:23:06;101300.47;;;8.41;65.33
18985;BME280;9626;52.552;13.436;2023-05-01T06:25:34;101300.47;;;8.51;64.41
18985;BME280;9626;52.552;13.436;2023-05-01T06:28:00;101304.00;;;8.62;63.72
18985;BME280;9626;52.552;13.436;2023-05-01T06:30:26;101296.03;;;8.70;63.49
18985;BME280;9626;52.552;13.436;2023-05-01T06:32:52;101291.59;;;8.87;62.60
18985;BME280;9626;52.552;13.436;2023-05-01T06:35:18;101295.94;;;9.04;62.25
18985;BME280;9626;52.552;13.436;2023-05-01T06:37:45;101290.66;;;9.04;61.59
18985;BME280;9626;52.552;13.436;2023-05-01T06:40:11;101288.00;;;9.11;61.14
18985;BME280;9626;52.552;13.436;2023-05-01T06:42:38;101288.81;;;9.29;61.26
18985;BME280;9626;52.552;13.436;2023-05-01T06:45:05;101288.72;;;9.43;60.27
18985;BME280;9626;52.552;13.436;2023-05-01T06:47:32;101293.94;;;9.58;59.47
18985;BME280;9626;52.552;13.436;2023-05-01T06:49:58;101289.44;;;9.74;58.29
18985;BME280;9626;52.552;13.436;2023-05-01T06:52:24;101287.59;;;9.82;57.90
18985;BME280;9626;52.552;13.436;2023-05-01T06:54:50;101292.91;;;9.82;57.91
18985;BME280;9626;52.552;13.436;2023-05-01T06:57:16;101290.16;;;10.00;57.55
18985;BME280;9626;52.552;13.436;2023-05-01T06:59:42;101288.31;;;10.09;57.25
18985;BME280;9626;52.552;13.436;2023-05-01T07:02:08;101282.88;;;10.25;56.62
18985;BME280;9626;52.552;13.436;2023-05-01T07:04:34;101285.50;;;10.29;56.42
18985;BME280;9626;52.552;13.436;2023-05-01T07:07:00;101285.38;;;10.43;55.52
18985;BME280;9626;52.552;13.436;2023-05-01T07:09:27;101289.88;;;10.29;54.51
18985;BME280;9626;52.552;13.436;2023-05-01T07:11:53;101285.50;;;10.29;55.26
18985;BME280;9626;52.552;13.436;2023-05-01T07:14:22;101285.47;;;10.28;54.95
18985;BME280;9626;52.552;13.436;2023-05-01T07:16:48;101274.75;;;10.46;55.19
18985;BME280;9626;52.552;13.436;2023-05-01T07:19:14;101274.53;;;10.68;54.29
18985;BME280;9626;52.552;13.436;2023-05-01T07:21:40;101267.34;;;10.82;53.86
18985;BME280;9626;52.552;13.436;2023-05-01T07:24:06;101269.88;;;10.89;53.59
18985;BME280;9626;52.552;13.436;2023-05-01T07:26:32;101270.63;;;11.00;53.66
18985;BME280;9626;52.552;13.436;2023-05-01T07:28:59;101270.63;;;11.02;53.13
18985;BME280;9626;52.552;13.436;2023-05-01T07:31:24;101263.47;;;11.08;53.00
18985;BME280;9626;52.552;13.436;2023-05-01T07:33:50;101265.06;;;11.22;52.97
18985;BME280;9626;52.552;13.436;2023-05-01T07:36:17;101259.75;;;11.25;52.53
18985;BME280;9626;52.552;13.436;2023-05-01T07:38:45;101264.91;;;11.34;52.17
18985;BME280;9626;52.552;13.436;2023-05-01T07:41:11;101262.25;;;11.34;51.59
18985;BME280;9626;52.552;13.436;2023-05-01T07:43:37;101254.03;;;11.53;52.03
18985;BME280;9626;52.552;13.436;2023-05-01T07:46:03;101251.97;;;11.73;52.66
18985;BME280;9626;52.552;13.436;2023-05-01T07:48:30;101248.16;;;11.90;51.18
18985;BME280;9626;52.552;13.436;2023-05-01T07:51:00;101246.53;;;11.81;51.19
18985;BME280;9626;52.552;13.436;2023-05-01T07:53:27;101241.16;;;11.86;51.35
18985;BME280;9626;52.552;13.436;2023-05-01T07:55:53;101244.69;;;11.84;51.03
18985;BME280;9626;52.552;13.436;2023-05-01T07:58:18;101238.97;;;12.12;50.80
18985;BME280;9626;52.552;13.436;2023-05-01T08:00:45;101236.03;;;12.28;50.29
18985;BME280;9626;52.552;13.436;2023-05-01T08:03:11;101235.00;;;12.38;49.67
18985;BME280;9626;52.552;13.436;2023-05-01T08:05:41;101231.59;;;12.30;49.28
18985;BME280;9626;52.552;13.436;2023-05-01T08:08:07;101228.41;;;12.58;48.58
18985;BME280;9626;52.552;13.436;2023-05-01T08:10:34;101227.34;;;12.68;48.63
18985;BME280;9626;52.552;13.436;2023-05-01T08:13:00;101221.69;;;12.83;48.34
18985;BME280;9626;52.552;13.436;2023-05-01T08:15:26;101225.81;;;12.98;48.26
18985;BME280;9626;52.552;13.436;2023-05-01T08:17:53;101229.88;;;13.16;47.61
18985;BME280;9626;52.552;13.436;2023-05-01T08:20:19;101226.88;;;13.30;46.92
18985;BME280;9626;52.552;13.436;2023-05-01T08:22:45;101226.69;;;13.41;46.97
18985;BME280;9626;52.552;13.436;2023-05-01T08:25:11;101217.03;;;13.75;47.07
18985;BME280;9626;52.552;13.436;2023-05-01T08:27:37;101219.13;;;13.98;45.66
18985;BME280;9626;52.552;13.436;2023-05-01T08:30:04;101210.97;;;14.04;44.98
18985;BME280;9626;52.552;13.436;2023-05-01T08:32:30;101215.94;;;14.84;44.30
18985;BME280;9626;52.552;13.436;2023-05-01T08:34:56;101211.22;;;15.24;43.55
18985;BME280;9626;52.552;13.436;2023-05-01T08:37:22;101210.81;;;15.36;42.72
18985;BME280;9626;52.552;13.436;2023-05-01T08:39:48;101206.16;;;15.99;41.62
18985;BME280;9626;52.552;13.436;2023-05-01T08:42:14;101201.53;;;16.30;40.97
18985;BME280;9626;52.552;13.436;2023-05-01T08:44:42;101216.19;;;16.18;40.17
18985;BME280;9626;52.552;13.436;2023-05-01T08:47:15;101205.44;;;16.19;39.40
18985;BME280;9626;52.552;13.436;2023-05-01T08:49:42;101205.88;;;16.07;39.27
18985;BME280;9626;52.552;13.436;2023-05-01T08:52:10;101195.66;;;15.93;40.16
18985;BME280;9626;52.552;13.436;2023-05-01T08:54:39;101186.97;;;15.86;40.57
18985;BME280;9626;52.552;13.436;2023-05-01T08:57:09;101189.84;;;16.07;40.22
18985;BME280;9626;52.552;13.436;2023-05-01T08:59:36;101191.28;;;16.17;39.65
18985;BME280;9626;52.552;13.436;2023-05-01T09:02:06;101194.63;;;16.73;38.55
18985;BME280;9626;52.552;13.436;2023-05-01T09:04:39;101190.59;;;16.36;39.58
18985;BME280;9626;52.552;13.436;2023-05-01T09:07:06;101176.13;;;16.43;39.44
18985;BME280;9626;52.552;13.436;2023-05-01T09:09:33;101182.91;;;16.52;39.06
18985;BME280;9626;52.552;13.436;2023-05-01T09:14:45;101169.72;;;15.97;39.19
18985;BME280;9626;52.552;13.436;2023-05-01T09:17:12;101160.41;;;16.09;38.58
18985;BME280;9626;52.552;13.436;2023-05-01T09:19:38;101151.16;;;16.19;38.72
18985;BME280;9626;52.552;13.436;2023-05-01T09:22:06;101154.81;;;15.89;38.63
18985;BME280;9626;52.552;13.436;2023-05-01T09:24:32;101150.00;;;15.74;39.45
18985;BME280;9626;52.552;13.436;2023-05-01T09:26:58;101142.09;;;16.23;38.66
18985;BME280;9626;52.552;13.436;2023-05-01T09:29:45;101146.88;;;16.38;36.68
18985;BME280;9626;52.552;13.436;2023-05-01T09:34:38;101147.06;;;17.05;36.43
18985;BME280;9626;52.552;13.436;2023-05-01T09:37:05;101138.25;;;16.55;37.77
18985;BME280;9626;52.552;13.436;2023-05-01T09:39:31;101132.31;;;16.71;38.02
18985;BME280;9626;52.552;13.436;2023-05-01T09:41:57;101134.44;;;16.85;37.49
18985;BME280;9626;52.552;13.436;2023-05-01T09:44:23;101132.44;;;16.68;36.50
18985;BME280;9626;52.552;13.436;2023-05-01T09:46:49;101124.75;;;16.59;37.24
18985;BME280;9626;52.552;13.436;2023-05-01T09:49:15;101119.38;;;16.82;37.87
18985;BME280;9626;52.552;13.436;2023-05-01T09:51:41;101107.94;;;17.24;37.51
18985;BME280;9626;52.552;13.436;2023-05-01T09:54:17;101107.19;;;17.64;36.67
18985;BME280;9626;52.552;13.436;2023-05-01T09:56:48;101097.56;;;17.80;36.29
18985;BME280;9626;52.552;13.436;2023-05-01T09:59:16;101109.16;;;17.38;36.80
18985;BME280;9626;52.552;13.436;2023-05-01T10:01:45;101099.56;;;17.75;36.88
18985;BME280;9626;52.552;13.436;2023-05-01T10:04:12;101098.28;;;18.06;36.32
18985;BME280;9626;52.552;13.436;2023-05-01T10:06:39;101096.34;;;17.67;36.89
18985;BME280;9626;52.552;13.436;2023-05-01T10:09:06;101098.94;;;18.11;37.63
18985;BME280;9626;52.552;13.436;2023-05-01T10:11:49;101091.06;;;18.08;36.52
18985;BME280;9626;52.552;13.436;2023-05-01T10:14:16;101093.03;;;17.62;36.28
18985;BME280;9626;52.552;13.436;2023-05-01T10:16:43;101081.72;;;17.76;37.54
18985;BME280;9626;52.552;13.436;2023-05-01T10:19:10;101076.69;;;18.09;36.42
18985;BME280;9626;52.552;13.436;2023-05-01T10:21:36;101084.72;;;18.09;36.06
18985;BME280;9626;52.552;13.436;2023-05-01T10:24:02;101070.00;;;17.78;37.58
18985;BME280;9626;52.552;13.436;2023-05-01T10:26:33;101088.03;;;17.32;37.99
18985;BME280;9626;52.552;13.436;2023-05-01T10:29:00;101084.69;;;17.47;38.22
18985;BME280;9626;52.552;13.436;2023-05-01T10:31:26;101072.66;;;17.37;37.48
18985;BME280;9626;52.552;13.436;2023-05-01T10:33:54;101062.94;;;17.34;38.61
18985;BME280;9626;52.552;13.436;2023-05-01T10:36:26;101061.53;;;17.67;37.06
18985;BME280;9626;52.552;13.436;2023-05-01T10:38:56;101052.19;;;17.98;37.88
18985;BME280;9626;52.552;13.436;2023-05-01T10:44:26;101050.09;;;18.44;36.39
18985;BME280;9626;52.552;13.436;2023-05-01T10:46:53;101044.53;;;18.09;36.04
18985;BME280;9626;52.552;13.436;2023-05-01T10:49:20;101039.53;;;17.81;36.68
18985;BME280;9626;52.552;13.436;2023-05-01T10:51:58;101028.47;;;17.88;36.98
18985;BME280;9626;52.552;13.436;2023-05-01T10:54:30;101021.91;;;18.16;36.70
18985;BME280;9626;52.552;13.436;2023-05-01T10:56:58;101030.97;;;18.33;36.48
18985;BME280;9626;52.552;13.436;2023-05-01T11:02:23;101026.53;;;18.70;36.56
18985;BME280;9626;52.552;13.436;2023-05-01T11:04:51;101006.75;;;19.09;35.59
18985;BME280;9626;52.552;13.436;2023-05-01T11:07:20;101031.16;;;18.66;34.92
18985;BME280;9626;52.552;13.436;2023-05-01T11:09:49;101022.97;;;18.12;36.07
18985;BME280;9626;52.552;13.436;2023-05-01T11:15:10;101005.25;;;17.89;36.04
18985;BME280;9626;52.552;13.436;2023-05-01T11:22:33;100986.06;;;17.58;37.29
18985;BME280;9626;52.552;13.436;2023-05-01T11:24:59;100982.06;;;17.48;37.77
18985;BME280;9626;52.552;13.436;2023-05-01T11:27:26;100976.81;;;17.24;38.22
18985;BME280;9626;52.552;13.436;2023-05-01T11:29:52;100961.44;;;17.09;38.18
18985;BME280;9626;52.552;13.436;2023-05-01T11:32:23;100967.31;;;17.17;38.52
18985;BME280;9626;52.552;13.436;2023-05-01T11:34:49;100961.50;;;17.28;38.10
18985;BME280;9626;52.552;13.436;2023-05-01T11:37:16;100959.53;;;17.73;37.44
18985;BME280;9626;52.552;13.436;2023-05-01T11:39:49;100948.34;;;17.84;37.35
18985;BME280;9626;52.552;13.436;2023-05-01T11:42:19;100953.22;;;17.55;37.20
18985;BME280;9626;52.552;13.436;2023-05-01T11:45:08;100945.78;;;17.41;37.99
18985;BME280;9626;52.552;13.436;2023-05-01T11:47:37;100943.75;;;17.46;37.79
18985;BME280;9626;52.552;13.436;2023-05-01T11:50:04;100942.69;;;17.90;36.98
18985;BME280;9626;52.552;13.436;2023-05-01T11:52:40;100937.78;;;18.57;35.20
18985;BME280;9626;52.552;13.436;2023-05-01T11:55:07;100935.25;;;18.90;35.52
18985;BME280;9626;52.552;13.436;2023-05-01T11:57:45;100943.38;;;19.24;35.49
18985;BME280;9626;52.552;13.436;2023-05-01T12:00:25;100940.44;;;19.46;35.13
18985;BME280;9626;52.552;13.436;2023-05-01T12:02:59;100935.16;;;19.45;34.74
18985;BME280;9626;52.552;13.436;2023-05-01T12:05:26;100922.28;;;19.34;34.90
18985;BME280;9626;52.552;13.436;2023-05-01T12:08:15;100931.53;;;19.46;34.00
18985;BME280;9626;52.552;13.436;2023-05-01T12:10:46;100924.97;;;19.51;34.16
18985;BME280;9626;52.552;13.436;2023-05-01T12:13:13;100918.97;;;19.46;34.12
18985;BME280;9626;52.552;13.436;2023-05-01T12:15:48;100915.47;;;18.74;34.37
18985;BME280;9626;52.552;13.436;2023-05-01T12:18:15;100915.75;;;19.04;33.98
18985;BME280;9626;52.552;13.436;2023-05-01T12:20:46;100905.81;;;18.89;33.82
18985;BME280;9626;52.552;13.436;2023-05-01T12:23:14;100907.56;;;19.07;34.23
18985;BME280;9626;52.552;13.436;2023-05-01T12:25:44;100903.66;;;19.31;34.92
18985;BME280;9626;52.552;13.436;2023-05-01T12:28:12;100905.53;;;19.46;34.42
18985;BME280;9626;52.552;13.436;2023-05-01T12:30:40;100891.75;;;19.19;34.69
18985;BME280;9626;52.552;13.436;2023-05-01T12:33:11;100893.56;;;18.83;34.22
18985;BME280;9626;52.552;13.436;2023-05-01T12:35:39;100890.44;;;18.92;34.02
18985;BME280;9626;52.552;13.436;2023-05-01T12:40:50;100882.53;;;19.07;34.48
18985;BME280;9626;52.552;13.436;2023-05-01T12:43:39;100887.88;;;19.07;34.51
18985;BME280;9626;52.552;13.436;2023-05-01T12:46:13;100873.16;;;18.44;35.22
18985;BME280;9626;52.552;13.436;2023-05-01T12:48:39;100871.91;;;18.51;34.64
18985;BME280;9626;52.552;13.436;2023-05-01T12:51:06;100867.72;;;18.46;34.69
18985;BME280;9626;52.552;13.436;2023-05-01T12:53:32;100859.19;;;18.91;34.76
18985;BME280;9626;52.552;13.436;2023-05-01T12:55:58;100862.59;;;19.29;34.65
18985;BME280;9626;52.552;13.436;2023-05-01T12:58:34;100854.19;;;19.19;34.42
18985;BME280;9626;52.552;13.436;2023-05-01T13:01:01;100860.59;;;19.50;34.25
18985;BME280;9626;52.552;13.436;2023-05-01T13:03:28;100860.00;;;19.61;32.96
18985;BME280;9626;52.552;13.436;2023-05-01T13:05:59;100854.25;;;19.35;33.00
18985;BME280;9626;52.552;13.436;2023-05-01T13:08:26;100859.16;;;19.27;33.08
18985;BME280;9626;52.552;13.436;2023-05-01T13:10:54;100841.25;;;19.92;33.02
18985;BME280;9626;52.552;13.436;2023-05-01T13:13:28;100844.78;;;20.25;32.89
18985;BME280;9626;52.552;13.436;2023-05-01T13:16:11;100849.25;;;20.40;32.73
18985;BME280;9626;52.552;13.436;2023-05-01T13:18:49;100843.06;;;20.54;32.42
18985;BME280;9626;52.552;13.436;2023-05-01T13:21:20;100837.16;;;20.94;32.41
18985;BME280;9626;52.552;13.436;2023-05-01T13:26:29;100835.97;;;20.07;33.30
18985;BME280;9626;52.552;13.436;2023-05-01T13:28:58;100830.38;;;19.78;33.69
18985;BME280;9626;52.552;13.436;2023-05-01T13:31:25;100828.16;;;19.86;33.88
18985;BME280;9626;52.552;13.436;2023-05-01T13:33:53;100824.84;;;19.32;34.27
18985;BME280;9626;52.552;13.436;2023-05-01T13:36:20;100824.72;;;19.35;34.02
18985;BME280;9626;52.552;13.436;2023-05-01T13:38:49;100817.38;;;19.54;33.99